Horsham, Australia
Current Conditions -  °F | °C
As of 3:00 PM on Tuesday 21 Oct 2014 (Local Time) from YMTG Reporting Station
Clear Clear  
Wind Chill: 82°   Ceiling: Unl
Heat Index: 82°   Visibility: 6mi
Dew Point: 43°   Wind: 8mph
Humidity: 25%   Direction: 70°ENE
Pressure: 30.15"   Gusts: NA
Location:  36.71°S, 142.2°E
Report Text: YMTG 210400Z AUTO 07007KT 9999 // NCD 28/06 Q1021
Loading
Personal Weather Stations






























Interactive Weather Map
Tropical Storm Tracking
New forecast layout! Learn more

10-Day Weather Forecast

Advertisements
Track Severe Weather on mobile